MMRX/REX METAR and TAF weather

Enter ICAO airport designator
Station Type Date Time Source
MMRX METAR 2019/02/21 15:44 UTC NOAA

MMRX 211544Z 00000KT 5SM OVC015 16/10 A2991 RMK 8/7// HZ


Station Type Date Time Source
MMRX Decoded METAR 2019/02/21 15:44 UTC NOAA

Reynosa International Airport , Mexico (MMRX) 26-01N 098-14W
Feb 21, 2019 - 10:44 AM EST / 2019.02.21 1544 UTC
Wind: Calm:0
Visibility: 5 mile(s):0
Sky conditions: overcast
Temperature: 60 F (16 C)
Dew Point: 50 F (10 C)
Relative Humidity: 67%
Pressure (altimeter): 29.91 in. Hg (1012 hPa)
ob: MMRX 211544Z 00000KT 5SM OVC015 16/10 A2991 RMK 8/7// HZ
cycle: 15

Station Type Date Time Source
MMRX TAF 2019/02/21 13:29 UTC NOAA

TAF
AMD MMRX 211322Z 2113/2206 00000KT P6SM OVC010
FM211530 09006KT P6SM BKN015
BECMG 2117/2118 13012KT SCT020
FM220300 12010KT 4SM HZ BKN010 OVC015


Example: see airport list